createdAt,value
2018-11-14T00:01:33.249Z,592.48
2018-11-14T00:04:02.896Z,600.53
2018-11-14T00:06:34.157Z,595.83
2018-11-14T00:09:04.887Z,613.03
2018-11-14T00:11:34.478Z,588.05
2018-11-14T00:14:04.039Z,589.02
2018-11-14T00:16:33.657Z,598.00
2018-11-14T00:19:04.111Z,605.95
2018-11-14T00:21:33.558Z,601.37
2018-11-14T00:24:03.016Z,598.35
2018-11-14T00:26:32.488Z,605.30
2018-11-14T00:29:02.018Z,617.15
2018-11-14T00:31:31.481Z,617.75
2018-11-14T00:34:02.374Z,603.77
2018-11-14T00:36:32.649Z,597.52
2018-11-14T00:39:02.137Z,609.00
2018-11-14T00:41:31.629Z,608.85
2018-11-14T00:44:01.284Z,618.13
2018-11-14T00:46:30.808Z,602.83
2018-11-14T00:49:00.278Z,597.37
2018-11-14T00:51:30.073Z,593.35
2018-11-14T00:54:00.237Z,579.98
2018-11-14T00:56:29.696Z,561.73
2018-11-14T00:58:59.472Z,556.45
2018-11-14T01:01:28.957Z,567.20
2018-11-14T01:03:59.268Z,532.05
2018-11-14T01:06:28.889Z,546.45
2018-11-14T01:08:58.376Z,557.80
2018-11-14T01:11:28.006Z,537.15
2018-11-14T01:13:58.468Z,543.97
2018-11-14T01:16:28.010Z,546.53
2018-11-14T01:18:57.603Z,562.45
2018-11-14T01:21:27.125Z,565.85
2018-11-14T01:23:56.847Z,552.67
2018-11-14T01:26:26.918Z,560.63
2018-11-14T01:28:58.276Z,560.00
2018-11-14T01:44:30.354Z,554.20
2018-11-14T01:46:59.800Z,560.78
2018-11-14T01:49:29.282Z,572.35
2018-11-14T01:51:58.734Z,562.95
2018-11-14T01:54:28.287Z,559.60
2018-11-14T01:56:57.879Z,561.77
2018-11-14T01:59:29.323Z,581.27
2018-11-14T02:01:58.955Z,580.48
2018-11-14T02:04:28.434Z,559.87
2018-11-14T02:06:58.032Z,557.77
2018-11-14T02:22:30.952Z,553.97
2018-11-14T02:25:02.624Z,536.63
2018-11-14T02:27:32.130Z,542.33
2018-11-14T02:30:03.714Z,540.50
2018-11-14T02:32:33.179Z,529.40
2018-11-14T02:48:05.111Z,522.35
2018-11-14T02:50:34.699Z,532.80
2018-11-14T02:53:05.238Z,521.83
2018-11-14T02:55:34.729Z,527.58
2018-11-14T02:58:04.414Z,519.30
2018-11-14T03:00:33.884Z,530.45
2018-11-14T03:03:03.524Z,550.40
2018-11-14T03:05:33.024Z,535.13
2018-11-14T03:08:02.554Z,542.67
2018-11-14T03:10:32.024Z,535.73
2018-11-14T03:13:01.635Z,517.53
2018-11-14T03:15:31.251Z,531.73
2018-11-14T03:18:00.808Z,527.20
2018-11-14T03:20:30.275Z,517.48
2018-11-14T03:22:59.779Z,517.10
2018-11-14T03:25:29.173Z,511.35
2018-11-14T03:27:58.798Z,519.73
2018-11-14T03:30:28.228Z,512.98
2018-11-14T03:32:57.741Z,522.50
2018-11-14T03:35:31.450Z,512.20
2018-11-14T03:38:01.019Z,519.10
2018-11-14T03:40:30.431Z,526.60
2018-11-14T03:42:59.890Z,535.07
2018-11-14T03:45:29.388Z,540.58
2018-11-14T03:47:58.951Z,525.17
2018-11-14T03:50:28.440Z,535.13
2018-11-14T03:52:58.030Z,531.47
2018-11-14T03:55:27.597Z,531.92
2018-11-14T03:57:57.187Z,539.75
2018-11-14T04:00:26.815Z,522.67
2018-11-14T04:02:56.277Z,534.37
2018-11-14T04:05:25.885Z,532.73
2018-11-14T04:07:55.309Z,521.85
2018-11-14T04:10:25.857Z,522.33
2018-11-14T04:12:55.330Z,519.28
2018-11-14T04:15:24.926Z,514.78
2018-11-14T04:17:54.427Z,509.65
2018-11-14T04:20:23.836Z,529.15
2018-11-14T04:22:54.335Z,495.52
2018-11-14T04:25:23.843Z,522.73
2018-11-14T04:27:53.350Z,523.23
2018-11-14T04:30:23.686Z,518.52
2018-11-14T04:32:53.208Z,510.37
2018-11-14T04:35:22.712Z,526.58
2018-11-14T04:37:52.182Z,519.13
2018-11-14T04:40:23.845Z,523.85
2018-11-14T04:42:53.376Z,515.60
2018-11-14T04:45:25.831Z,517.03
2018-11-14T04:47:56.371Z,524.38
2018-11-14T04:50:27.011Z,510.63
2018-11-14T04:52:56.876Z,510.55
2018-11-14T04:55:27.108Z,518.65
2018-11-14T04:57:56.601Z,516.02
2018-11-14T05:00:26.886Z,508.72
2018-11-14T05:02:58.369Z,499.38
2018-11-14T05:05:27.893Z,496.77
2018-11-14T05:07:58.428Z,492.37
2018-11-14T05:10:27.904Z,498.97
2018-11-14T05:12:57.551Z,487.40
2018-11-14T05:15:26.959Z,493.65
2018-11-14T05:17:56.766Z,490.80
2018-11-14T05:20:26.283Z,500.50
2018-11-14T05:22:55.807Z,488.50
2018-11-14T05:38:28.408Z,491.18
2018-11-14T05:40:57.969Z,484.70
2018-11-14T05:43:27.633Z,489.40
2018-11-14T05:45:57.221Z,484.57
2018-11-14T05:48:26.673Z,480.43
2018-11-14T05:50:56.242Z,486.10
2018-11-14T05:53:25.689Z,478.10
2018-11-14T05:55:55.236Z,480.45
2018-11-14T05:58:24.834Z,481.65
2018-11-14T06:00:54.298Z,500.83
2018-11-14T06:03:23.974Z,485.73
2018-11-14T06:05:53.540Z,477.93
2018-11-14T06:08:23.088Z,471.68
2018-11-14T06:10:54.626Z,487.60
2018-11-14T06:13:24.148Z,469.27
2018-11-14T06:15:53.702Z,472.85
2018-11-14T06:18:23.213Z,475.62
2018-11-14T06:20:54.742Z,461.82
2018-11-14T06:23:24.323Z,472.10
2018-11-14T06:25:53.817Z,473.80
2018-11-14T06:28:24.747Z,475.18
2018-11-14T06:30:54.955Z,475.75
2018-11-14T06:33:25.530Z,488.55
2018-11-14T06:35:55.005Z,461.17
2018-11-14T06:38:26.524Z,494.50
2018-11-14T06:40:56.095Z,507.92
2018-11-14T06:43:25.591Z,503.15
2018-11-14T06:45:55.134Z,478.35
2018-11-14T06:48:24.669Z,475.42
2018-11-14T06:50:54.183Z,476.35
2018-11-14T06:53:23.778Z,464.35
2018-11-14T06:55:55.293Z,459.03
2018-11-14T06:58:24.820Z,443.63
2018-11-14T07:00:54.387Z,466.52
2018-11-14T07:03:24.907Z,458.98
2018-11-14T07:05:54.549Z,465.92
2018-11-14T07:08:23.900Z,465.83
2018-11-14T07:10:53.539Z,467.37
2018-11-14T07:13:23.090Z,453.77
2018-11-14T07:15:52.606Z,464.93
2018-11-14T07:18:22.391Z,453.38
2018-11-14T07:20:54.639Z,435.95
2018-11-14T07:23:24.212Z,451.33
2018-11-14T07:25:53.768Z,451.98
2018-11-14T07:28:23.290Z,452.13
2018-11-14T07:30:52.900Z,462.18
2018-11-14T07:33:22.532Z,462.98
2018-11-14T07:35:51.977Z,443.67
2018-11-14T07:38:33.784Z,452.97
2018-11-14T07:41:04.621Z,449.92
2018-11-14T07:43:36.221Z,456.80
2018-11-14T07:46:07.357Z,455.80
2018-11-14T07:48:37.244Z,465.43
2018-11-14T07:51:07.066Z,460.37
2018-11-14T07:53:36.604Z,450.32
2018-11-14T07:56:06.196Z,475.87
2018-11-14T07:58:35.925Z,469.52
2018-11-14T08:01:06.010Z,483.85
2018-11-14T08:03:35.717Z,479.40
2018-11-14T08:19:07.649Z,471.85
2018-11-14T08:21:37.131Z,479.07
2018-11-14T08:24:07.692Z,470.18
2018-11-14T08:26:37.241Z,451.15
2018-11-14T08:29:07.062Z,469.37
2018-11-14T08:31:36.722Z,462.93
2018-11-14T08:34:06.687Z,455.70
2018-11-14T08:36:36.331Z,457.73
2018-11-14T08:39:07.685Z,460.43
2018-11-14T08:41:37.139Z,455.07
2018-11-14T08:44:06.766Z,448.70
2018-11-14T08:46:36.378Z,444.30
2018-11-14T08:49:05.974Z,437.50
2018-11-14T08:51:36.255Z,451.37
2018-11-14T09:07:15.602Z,452.17
2018-11-14T09:09:46.238Z,466.32
2018-11-14T09:12:16.408Z,475.12
2018-11-14T09:14:45.923Z,473.73
2018-11-14T09:17:15.524Z,478.85
2018-11-14T09:19:45.101Z,482.10
2018-11-14T09:22:14.568Z,466.03
2018-11-14T09:24:44.859Z,457.02
2018-11-14T09:27:14.420Z,457.82
2018-11-14T09:29:44.016Z,452.10
2018-11-14T09:32:13.587Z,451.02
2018-11-14T09:34:43.097Z,451.80
2018-11-14T09:37:12.649Z,457.08
2018-11-14T09:39:42.185Z,462.42
2018-11-14T09:42:11.729Z,468.17
2018-11-14T09:44:43.842Z,461.28
2018-11-14T09:47:13.398Z,472.65
2018-11-14T09:49:44.437Z,474.05
2018-11-14T09:52:14.014Z,472.27
2018-11-14T09:54:43.526Z,468.45
2018-11-14T09:57:13.211Z,473.65
2018-11-14T09:59:42.693Z,482.62
2018-11-14T10:02:12.217Z,471.33
2018-11-14T10:04:41.901Z,472.43
2018-11-14T10:07:11.475Z,466.68
2018-11-14T10:09:42.030Z,471.40
2018-11-14T10:12:11.572Z,461.02
2018-11-14T10:14:41.240Z,464.63
2018-11-14T10:17:11.896Z,472.30
2018-11-14T10:19:41.390Z,472.55
2018-11-14T10:22:10.885Z,478.73
2018-11-14T10:24:42.509Z,516.30
2018-11-14T10:27:12.009Z,505.33
2018-11-14T10:29:42.336Z,513.22
2018-11-14T10:32:11.910Z,511.62
2018-11-14T10:34:42.454Z,499.88
2018-11-14T10:37:11.962Z,507.08
2018-11-14T10:39:42.491Z,514.08
2018-11-14T10:42:11.949Z,527.87
2018-11-14T10:44:41.510Z,540.05
2018-11-14T10:47:12.015Z,552.65
2018-11-14T10:49:41.569Z,559.85
2018-11-14T10:52:12.076Z,553.17
2018-11-14T10:54:41.589Z,553.80
2018-11-14T11:10:19.627Z,575.48
2018-11-14T11:12:54.415Z,503.97
2018-11-14T11:16:29.645Z,496.05
2018-11-14T11:18:59.078Z,504.07
2018-11-14T11:21:28.688Z,498.32
2018-11-14T11:23:58.211Z,500.97
2018-11-14T11:26:27.728Z,513.42
2018-11-14T11:28:57.161Z,513.45
2018-11-14T11:31:27.212Z,515.28
2018-11-14T11:33:56.804Z,529.62
2018-11-14T11:36:27.342Z,524.52
2018-11-14T11:51:59.261Z,572.80
2018-11-14T11:54:28.821Z,542.35
2018-11-14T11:56:58.384Z,550.67
2018-11-14T11:59:27.980Z,541.93
2018-11-14T12:01:57.520Z,543.92
2018-11-14T12:04:27.080Z,537.98
2018-11-14T12:06:56.563Z,546.83
2018-11-14T12:09:27.111Z,536.00
2018-11-14T12:11:56.709Z,550.40
2018-11-14T12:14:26.257Z,547.83
2018-11-14T12:16:56.844Z,546.80
2018-11-14T12:19:26.356Z,547.50
2018-11-14T12:21:55.874Z,546.72
2018-11-14T12:24:25.424Z,549.97
2018-11-14T12:26:54.929Z,557.70
2018-11-14T12:29:24.597Z,552.35
2018-11-14T12:31:54.077Z,556.75
2018-11-14T12:34:23.572Z,545.20
2018-11-14T12:36:53.114Z,538.67
2018-11-14T12:39:23.690Z,529.77
2018-11-14T12:41:53.435Z,518.70
2018-11-14T12:44:22.808Z,523.83
2018-11-14T12:46:54.707Z,528.70
2018-11-14T12:49:24.848Z,517.98
2018-11-14T12:51:54.445Z,517.65
2018-11-14T12:54:24.607Z,510.73
2018-11-14T12:56:54.381Z,503.70
2018-11-14T12:59:24.106Z,502.73
2018-11-14T13:01:53.719Z,506.02
2018-11-14T13:04:23.268Z,495.80
2018-11-14T13:06:52.782Z,496.22
2018-11-14T13:09:22.336Z,499.10
2018-11-14T13:11:52.853Z,513.03
2018-11-14T13:14:23.521Z,504.95
2018-11-14T13:16:53.098Z,501.48
2018-11-14T13:19:22.614Z,495.85
2018-11-14T13:21:52.187Z,486.63
2018-11-14T13:24:21.690Z,495.05
2018-11-14T13:26:51.403Z,511.28
2018-11-14T13:29:20.910Z,488.85
2018-11-14T13:31:50.411Z,488.55
2018-11-14T13:34:19.979Z,496.03
2018-11-14T13:36:49.570Z,500.53
2018-11-14T13:39:19.050Z,504.18
2018-11-14T13:41:48.670Z,506.47
2018-11-14T13:44:18.201Z,502.60
2018-11-14T13:46:47.681Z,508.32
2018-11-14T13:49:17.290Z,513.20
2018-11-14T13:51:46.747Z,505.50
2018-11-14T13:54:17.281Z,502.97
2018-11-14T13:56:46.756Z,500.12
2018-11-14T13:59:17.308Z,502.80
2018-11-14T14:01:46.924Z,504.75
2018-11-14T14:04:16.515Z,509.87
2018-11-14T14:06:46.459Z,523.60
2018-11-14T14:09:16.182Z,517.35
2018-11-14T14:11:47.744Z,521.20
2018-11-14T14:14:19.001Z,520.25
2018-11-14T14:16:48.510Z,524.88
2018-11-14T14:19:19.024Z,519.93
2018-11-14T14:21:48.608Z,524.62
2018-11-14T14:24:18.082Z,519.77
2018-11-14T14:26:48.867Z,530.10
2018-11-14T14:29:20.473Z,523.40
2018-11-14T14:31:50.137Z,518.20
2018-11-14T14:34:19.574Z,522.70
2018-11-14T14:36:49.094Z,516.65
2018-11-14T14:39:19.593Z,524.38
2018-11-14T14:41:50.104Z,524.98
2018-11-14T14:44:19.689Z,528.80
2018-11-14T14:46:49.461Z,516.52
2018-11-14T14:49:20.029Z,523.92
2018-11-14T14:51:49.655Z,522.80
2018-11-14T14:54:19.153Z,528.30
2018-11-14T14:56:50.673Z,518.17
2018-11-14T14:59:20.218Z,521.53
2018-11-14T15:01:50.780Z,523.35
2018-11-14T15:04:21.212Z,528.52
2018-11-14T15:06:50.752Z,518.92
2018-11-14T15:09:20.419Z,509.93
2018-11-14T15:11:50.725Z,517.60
2018-11-14T15:14:21.783Z,503.20
2018-11-14T15:16:51.299Z,503.33
2018-11-14T15:19:20.790Z,492.93
2018-11-14T15:21:50.696Z,491.30
2018-11-14T15:24:20.177Z,488.65
2018-11-14T15:26:50.768Z,480.33
2018-11-14T15:29:20.371Z,480.60
2018-11-14T15:31:50.315Z,484.15
2018-11-14T15:34:20.447Z,484.33
2018-11-14T15:36:50.283Z,479.20
2018-11-14T15:39:20.791Z,472.02
2018-11-14T15:41:50.992Z,475.98
2018-11-14T15:44:20.598Z,474.00
2018-11-14T15:46:50.948Z,473.00
2018-11-14T15:49:20.522Z,472.05
2018-11-14T15:51:50.184Z,468.82
2018-11-14T15:54:19.628Z,475.83
2018-11-14T15:56:49.149Z,476.60
2018-11-14T15:59:19.444Z,481.80
2018-11-14T16:01:49.937Z,484.30
2018-11-14T16:04:20.444Z,478.00
2018-11-14T16:06:50.394Z,470.03
2018-11-14T16:09:20.171Z,480.20
2018-11-14T16:11:49.765Z,480.80
2018-11-14T16:14:19.359Z,488.90
2018-11-14T16:16:49.345Z,477.90
2018-11-14T16:19:19.047Z,475.42
2018-11-14T16:21:50.322Z,471.35
2018-11-14T16:24:19.899Z,483.25
2018-11-14T16:26:49.424Z,474.05
2018-11-14T16:29:18.941Z,462.65
2018-11-14T16:31:48.564Z,472.35
2018-11-14T16:34:18.071Z,474.50
2018-11-14T16:36:47.580Z,465.88
2018-11-14T16:39:17.194Z,475.57
2018-11-14T16:41:46.651Z,464.67
2018-11-14T16:44:16.178Z,469.43
2018-11-14T16:46:46.748Z,464.82
2018-11-14T16:49:16.256Z,467.97
2018-11-14T16:51:45.775Z,475.40
2018-11-14T16:54:15.329Z,477.88
2018-11-14T16:56:44.824Z,476.75
2018-11-14T16:59:14.411Z,489.50
2018-11-14T17:01:43.935Z,482.30
2018-11-14T17:04:13.496Z,491.05
2018-11-14T17:06:43.048Z,503.48
2018-11-14T17:09:13.447Z,497.77
2018-11-14T17:11:45.378Z,501.10
2018-11-14T17:14:14.933Z,511.82
2018-11-14T17:16:45.444Z,508.30
2018-11-14T17:19:15.996Z,513.05
2018-11-14T17:21:46.186Z,510.37
2018-11-14T17:24:15.698Z,513.40
2018-11-14T17:26:45.293Z,515.00
2018-11-14T17:29:14.850Z,513.27
2018-11-14T17:31:46.353Z,505.87
2018-11-14T17:34:15.888Z,509.43
2018-11-14T17:36:45.477Z,506.73
2018-11-14T17:52:18.406Z,510.15
2018-11-14T17:54:48.949Z,514.70
2018-11-14T17:57:18.391Z,512.80
2018-11-14T17:59:47.911Z,515.85
2018-11-14T18:02:18.400Z,513.98
2018-11-14T18:04:47.880Z,518.52
2018-11-14T18:07:17.468Z,515.20
2018-11-14T18:09:49.023Z,514.70
2018-11-14T18:12:18.485Z,512.67
2018-11-14T18:14:48.213Z,511.77
2018-11-14T18:17:41.235Z,506.78
2018-11-14T18:20:31.312Z,516.55
2018-11-14T18:23:01.276Z,516.62
2018-11-14T18:25:30.865Z,521.60
2018-11-14T18:28:00.761Z,511.98
2018-11-14T18:30:31.148Z,512.65
2018-11-14T18:33:03.977Z,528.83
2018-11-14T18:35:33.529Z,509.65
2018-11-14T18:38:04.152Z,514.60
2018-11-14T18:40:34.647Z,509.60
2018-11-14T18:43:04.256Z,514.00
2018-11-14T18:45:35.053Z,507.85
2018-11-14T19:01:07.716Z,505.18
2018-11-14T19:03:37.296Z,509.03
2018-11-14T19:06:06.812Z,501.10
2018-11-14T19:08:36.405Z,500.27
2018-11-14T19:11:06.582Z,502.50
2018-11-14T19:13:36.215Z,503.38
2018-11-14T19:16:06.707Z,499.65
2018-11-14T19:18:38.231Z,498.30
2018-11-14T19:21:07.614Z,500.65
2018-11-14T19:23:37.156Z,503.85
2018-11-14T19:26:07.051Z,504.68
2018-11-14T19:28:37.379Z,506.15
2018-11-14T19:31:06.897Z,503.05
2018-11-14T19:33:36.501Z,506.57
2018-11-14T19:36:06.178Z,493.73
2018-11-14T19:38:36.670Z,496.60
2018-11-14T19:41:06.241Z,498.00
2018-11-14T19:43:35.792Z,500.90
2018-11-14T19:46:05.771Z,497.25
2018-11-14T19:48:35.262Z,499.12
2018-11-14T19:51:05.177Z,501.13
2018-11-14T19:53:34.728Z,499.88
2018-11-14T19:56:04.390Z,496.73
2018-11-14T19:58:34.068Z,497.37
2018-11-14T20:01:04.624Z,501.33
2018-11-14T20:03:34.186Z,496.37
2018-11-14T20:06:05.126Z,503.82
2018-11-14T20:08:34.686Z,508.48
2018-11-14T20:11:04.597Z,507.85
2018-11-14T20:13:34.057Z,502.35
2018-11-14T20:16:03.623Z,514.17
2018-11-14T20:18:33.124Z,512.27
2018-11-14T20:21:03.013Z,506.07
2018-11-14T20:23:32.644Z,504.85
2018-11-14T20:26:02.197Z,511.12
2018-11-14T20:28:31.669Z,504.65
2018-11-14T20:31:01.328Z,518.90
2018-11-14T20:33:30.971Z,512.77
2018-11-14T20:36:00.452Z,509.95
2018-11-14T20:38:29.935Z,507.12
2018-11-14T20:40:59.378Z,513.55
2018-11-14T20:43:29.890Z,515.55
2018-11-14T20:46:00.523Z,517.40
2018-11-14T20:48:30.976Z,515.77
2018-11-14T20:51:00.477Z,512.27
2018-11-14T20:53:29.964Z,522.02
2018-11-14T20:55:59.635Z,515.95
2018-11-14T20:58:29.161Z,514.90
2018-11-14T21:00:58.736Z,513.30
2018-11-14T21:03:28.322Z,522.10
2018-11-14T21:05:58.438Z,520.12
2018-11-14T21:08:28.014Z,517.25
2018-11-14T21:10:57.527Z,525.40
2018-11-14T21:13:27.089Z,528.05
2018-11-14T21:15:57.655Z,527.78
2018-11-14T21:18:27.187Z,525.27
2018-11-14T21:20:58.307Z,532.92
2018-11-14T21:23:28.439Z,527.20
2018-11-14T21:25:58.033Z,529.05
2018-11-14T21:28:27.655Z,531.90
2018-11-14T21:30:57.235Z,539.90
2018-11-14T21:33:26.704Z,534.08
2018-11-14T21:35:57.277Z,534.55
2018-11-14T21:38:27.914Z,533.98
2018-11-14T21:40:57.408Z,534.87
2018-11-14T21:43:28.015Z,543.80
2018-11-14T21:45:57.446Z,540.17
2018-11-14T21:48:26.926Z,555.85
2018-11-14T21:50:56.501Z,553.00
2018-11-14T21:53:26.066Z,553.27
2018-11-14T21:56:33.693Z,547.40
2018-11-14T21:59:03.226Z,538.77
2018-11-14T22:01:32.771Z,544.95
2018-11-14T22:04:02.286Z,538.63
2018-11-14T22:06:31.810Z,549.40
2018-11-14T22:09:01.398Z,544.25
2018-11-14T22:11:30.888Z,538.37
2018-11-14T22:14:00.413Z,538.55
2018-11-14T22:16:29.935Z,534.50
2018-11-14T22:18:59.825Z,549.57
2018-11-14T22:21:29.282Z,533.30
2018-11-14T22:23:58.811Z,531.40
2018-11-14T22:26:28.478Z,545.45
2018-11-14T22:28:57.989Z,530.10
2018-11-14T22:31:28.716Z,534.50
2018-11-14T22:34:00.180Z,529.15
2018-11-14T22:36:29.705Z,524.80
2018-11-14T22:39:00.191Z,528.38
2018-11-14T22:41:30.350Z,527.37
2018-11-14T22:43:59.947Z,537.40
2018-11-14T22:46:29.456Z,533.75
2018-11-14T22:48:59.028Z,540.75
2018-11-14T22:51:29.552Z,540.02
2018-11-14T22:53:59.957Z,535.27
2018-11-14T22:56:29.407Z,534.45
2018-11-14T22:58:58.881Z,539.87
2018-11-14T23:01:28.395Z,538.20
2018-11-14T23:03:57.957Z,543.50
2018-11-14T23:06:27.461Z,543.20
2018-11-14T23:08:56.976Z,552.52
2018-11-14T23:11:27.262Z,540.08
2018-11-14T23:13:56.907Z,540.73
2018-11-14T23:16:26.447Z,520.70
2018-11-14T23:18:55.918Z,529.50
2018-11-14T23:21:25.447Z,526.73
2018-11-14T23:23:54.925Z,533.33
2018-11-14T23:26:24.518Z,531.85
2018-11-14T23:28:54.778Z,526.70
2018-11-14T23:31:24.367Z,517.63
2018-11-14T23:33:53.862Z,516.25
2018-11-14T23:36:24.357Z,517.00
2018-11-14T23:38:53.927Z,529.42
2018-11-14T23:41:23.423Z,536.50
2018-11-14T23:43:52.985Z,527.45
2018-11-14T23:46:22.554Z,519.75
2018-11-14T23:48:52.081Z,528.42
2018-11-14T23:51:21.536Z,529.48
2018-11-14T23:53:51.030Z,526.22
2018-11-14T23:56:20.598Z,533.75
2018-11-14T23:58:50.236Z,519.60
